sensor_id;sensor_type;location;lat;lon;timestamp;pressure;altitude;pressure_sealevel;temperature;humidity
55538;BME280;41383;51.418;7.286;2023-05-09T00:01:04;100071.44;;;16.07;83.35
55538;BME280;41383;51.418;7.286;2023-05-09T00:03:30;100064.63;;;15.99;83.80
55538;BME280;41383;51.418;7.286;2023-05-09T00:05:57;100067.47;;;15.94;84.08
55538;BME280;41383;51.418;7.286;2023-05-09T00:08:22;100056.94;;;16.02;83.66
55538;BME280;41383;51.418;7.286;2023-05-09T00:10:47;100047.31;;;15.99;83.59
55538;BME280;41383;51.418;7.286;2023-05-09T00:13:13;100052.16;;;15.88;83.45
55538;BME280;41383;51.418;7.286;2023-05-09T00:15:38;100045.94;;;15.77;84.49
55538;BME280;41383;51.418;7.286;2023-05-09T00:18:03;100046.28;;;15.70;84.61
55538;BME280;41383;51.418;7.286;2023-05-09T00:20:29;100040.66;;;15.81;84.50
55538;BME280;41383;51.418;7.286;2023-05-09T00:22:54;100036.81;;;15.82;84.27
55538;BME280;41383;51.418;7.286;2023-05-09T00:25:19;100039.63;;;15.76;84.00
55538;BME280;41383;51.418;7.286;2023-05-09T00:27:44;100030.63;;;15.71;84.57
55538;BME280;41383;51.418;7.286;2023-05-09T00:30:10;100034.66;;;15.79;84.39
55538;BME280;41383;51.418;7.286;2023-05-09T00:32:35;100035.78;;;15.78;84.10
55538;BME280;41383;51.418;7.286;2023-05-09T00:35:01;100040.63;;;15.86;83.59
55538;BME280;41383;51.418;7.286;2023-05-09T00:37:28;100039.09;;;15.74;83.82
55538;BME280;41383;51.418;7.286;2023-05-09T00:39:54;100025.22;;;15.85;83.76
55538;BME280;41383;51.418;7.286;2023-05-09T00:42:19;100034.81;;;15.87;82.97
55538;BME280;41383;51.418;7.286;2023-05-09T00:44:45;100023.69;;;15.98;82.93
55538;BME280;41383;51.418;7.286;2023-05-09T00:47:10;100014.09;;;15.95;82.88
55538;BME280;41383;51.418;7.286;2023-05-09T00:49:35;100017.44;;;15.92;82.76
55538;BME280;41383;51.418;7.286;2023-05-09T00:52:01;100010.50;;;15.75;82.90
55538;BME280;41383;51.418;7.286;2023-05-09T00:54:28;100005.00;;;15.75;83.22
55538;BME280;41383;51.418;7.286;2023-05-09T00:56:53;100001.28;;;15.66;83.39
55538;BME280;41383;51.418;7.286;2023-05-09T00:59:19;99997.63;;;15.71;83.68
55538;BME280;41383;51.418;7.286;2023-05-09T01:01:44;99988.00;;;15.73;83.40
55538;BME280;41383;51.418;7.286;2023-05-09T01:04:11;99986.50;;;15.62;83.10
55538;BME280;41383;51.418;7.286;2023-05-09T01:09:50;99983.38;;;15.69;82.79
55538;BME280;41383;51.418;7.286;2023-05-09T01:12:53;99976.94;;;15.54;83.39
55538;BME280;41383;51.418;7.286;2023-05-09T01:15:31;99966.56;;;15.51;83.11
55538;BME280;41383;51.418;7.286;2023-05-09T01:18:02;99972.28;;;15.55;83.84
55538;BME280;41383;51.418;7.286;2023-05-09T01:20:46;99967.44;;;15.46;83.95
55538;BME280;41383;51.418;7.286;2023-05-09T01:23:48;99969.38;;;15.46;83.99
55538;BME280;41383;51.418;7.286;2023-05-09T01:26:42;99963.88;;;15.46;84.29
55538;BME280;41383;51.418;7.286;2023-05-09T01:29:47;99964.22;;;15.39;84.39
55538;BME280;41383;51.418;7.286;2023-05-09T01:32:15;99955.91;;;15.44;84.36
55538;BME280;41383;51.418;7.286;2023-05-09T01:34:43;99963.41;;;15.38;84.89
55538;BME280;41383;51.418;7.286;2023-05-09T01:37:10;99956.44;;;15.46;84.36
55538;BME280;41383;51.418;7.286;2023-05-09T01:39:38;99954.28;;;15.43;84.65
55538;BME280;41383;51.418;7.286;2023-05-09T01:42:07;99952.13;;;15.40;84.78
55538;BME280;41383;51.418;7.286;2023-05-09T01:44:37;99953.69;;;15.46;84.81
55538;BME280;41383;51.418;7.286;2023-05-09T01:47:03;99956.75;;;15.45;84.42
55538;BME280;41383;51.418;7.286;2023-05-09T01:49:32;99956.44;;;15.46;84.98
55538;BME280;41383;51.418;7.286;2023-05-09T01:52:03;99960.84;;;15.47;84.86
55538;BME280;41383;51.418;7.286;2023-05-09T01:54:29;99955.03;;;15.49;84.93
55538;BME280;41383;51.418;7.286;2023-05-09T01:56:57;99959.66;;;15.54;84.61
55538;BME280;41383;51.418;7.286;2023-05-09T01:59:24;99962.34;;;15.59;84.17
55538;BME280;41383;51.418;7.286;2023-05-09T02:01:51;99957.13;;;15.57;84.10
55538;BME280;41383;51.418;7.286;2023-05-09T02:04:19;99949.41;;;15.59;83.91
55538;BME280;41383;51.418;7.286;2023-05-09T02:06:47;99944.22;;;15.58;84.36
55538;BME280;41383;51.418;7.286;2023-05-09T02:09:19;99931.94;;;15.50;84.49
55538;BME280;41383;51.418;7.286;2023-05-09T02:11:45;99933.13;;;15.44;84.69
55538;BME280;41383;51.418;7.286;2023-05-09T02:14:11;99930.66;;;15.42;85.11
55538;BME280;41383;51.418;7.286;2023-05-09T02:16:37;99934.41;;;15.51;84.88
55538;BME280;41383;51.418;7.286;2023-05-09T02:19:03;99933.41;;;15.42;84.94
55538;BME280;41383;51.418;7.286;2023-05-09T02:21:29;99944.16;;;15.38;85.04
55538;BME280;41383;51.418;7.286;2023-05-09T02:23:55;99935.69;;;15.35;85.96
55538;BME280;41383;51.418;7.286;2023-05-09T02:26:20;99942.69;;;15.46;85.41
55538;BME280;41383;51.418;7.286;2023-05-09T02:28:46;99934.97;;;15.48;85.02
55538;BME280;41383;51.418;7.286;2023-05-09T02:31:13;99937.69;;;15.54;84.94
55538;BME280;41383;51.418;7.286;2023-05-09T02:33:41;99934.84;;;15.59;84.62
55538;BME280;41383;51.418;7.286;2023-05-09T02:36:08;99940.34;;;15.59;84.91
55538;BME280;41383;51.418;7.286;2023-05-09T02:38:34;99935.91;;;15.63;84.28
55538;BME280;41383;51.418;7.286;2023-05-09T02:40:59;99935.91;;;15.63;84.23
55538;BME280;41383;51.418;7.286;2023-05-09T02:43:25;99946.91;;;15.63;84.32
55538;BME280;41383;51.418;7.286;2023-05-09T02:45:50;99933.91;;;15.69;84.03
55538;BME280;41383;51.418;7.286;2023-05-09T02:48:15;99941.28;;;15.73;83.94
55538;BME280;41383;51.418;7.286;2023-05-09T02:50:41;99940.66;;;15.76;83.89
55538;BME280;41383;51.418;7.286;2023-05-09T02:53:07;99935.34;;;15.66;84.02
55538;BME280;41383;51.418;7.286;2023-05-09T02:55:33;99932.34;;;15.62;84.20
55538;BME280;41383;51.418;7.286;2023-05-09T02:57:58;99928.41;;;15.69;84.20
55538;BME280;41383;51.418;7.286;2023-05-09T03:00:23;99932.06;;;15.64;84.46
55538;BME280;41383;51.418;7.286;2023-05-09T03:02:50;99930.84;;;15.70;84.35
55538;BME280;41383;51.418;7.286;2023-05-09T03:05:15;99929.66;;;15.76;84.34
55538;BME280;41383;51.418;7.286;2023-05-09T03:07:42;99928.50;;;15.83;83.96
55538;BME280;41383;51.418;7.286;2023-05-09T03:10:07;99927.09;;;15.85;83.99
55538;BME280;41383;51.418;7.286;2023-05-09T03:12:35;99927.44;;;15.79;83.87
55538;BME280;41383;51.418;7.286;2023-05-09T03:15:02;99920.56;;;15.81;84.05
55538;BME280;41383;51.418;7.286;2023-05-09T03:17:28;99914.16;;;15.86;83.37
55538;BME280;41383;51.418;7.286;2023-05-09T03:19:53;99917.44;;;15.88;83.84
55538;BME280;41383;51.418;7.286;2023-05-09T03:22:18;99918.53;;;15.87;83.57
55538;BME280;41383;51.418;7.286;2023-05-09T03:24:44;99906.44;;;15.88;83.72
55538;BME280;41383;51.418;7.286;2023-05-09T03:27:09;99899.69;;;15.80;84.16
55538;BME280;41383;51.418;7.286;2023-05-09T03:29:34;99907.25;;;15.88;83.88
55538;BME280;41383;51.418;7.286;2023-05-09T03:31:59;99905.91;;;15.86;83.90
55538;BME280;41383;51.418;7.286;2023-05-09T03:34:25;99908.97;;;15.84;84.13
55538;BME280;41383;51.418;7.286;2023-05-09T03:36:50;99906.13;;;15.90;84.19
55538;BME280;41383;51.418;7.286;2023-05-09T03:39:15;99906.06;;;15.95;83.49
55538;BME280;41383;51.418;7.286;2023-05-09T03:41:41;99902.00;;;15.92;83.99
55538;BME280;41383;51.418;7.286;2023-05-09T03:44:07;99909.25;;;15.83;84.21
55538;BME280;41383;51.418;7.286;2023-05-09T03:46:32;99904.50;;;15.88;83.47
55538;BME280;41383;51.418;7.286;2023-05-09T03:48:58;99901.00;;;15.83;84.38
55538;BME280;41383;51.418;7.286;2023-05-09T03:51:23;99901.22;;;15.86;84.35
55538;BME280;41383;51.418;7.286;2023-05-09T03:53:49;99898.25;;;15.83;84.57
55538;BME280;41383;51.418;7.286;2023-05-09T03:56:14;99908.72;;;15.81;84.87
55538;BME280;41383;51.418;7.286;2023-05-09T03:58:39;99900.34;;;15.72;85.25
55538;BME280;41383;51.418;7.286;2023-05-09T04:01:05;99896.69;;;15.76;84.94
55538;BME280;41383;51.418;7.286;2023-05-09T04:03:30;99893.06;;;15.81;84.69
55538;BME280;41383;51.418;7.286;2023-05-09T04:05:56;99896.47;;;15.73;85.09
55538;BME280;41383;51.418;7.286;2023-05-09T04:08:22;99901.66;;;15.74;85.29
55538;BME280;41383;51.418;7.286;2023-05-09T04:10:48;99896.59;;;15.62;85.43
55538;BME280;41383;51.418;7.286;2023-05-09T04:13:14;99888.53;;;15.71;85.66
55538;BME280;41383;51.418;7.286;2023-05-09T04:15:40;99892.31;;;15.75;85.63
55538;BME280;41383;51.418;7.286;2023-05-09T04:18:06;99881.97;;;15.86;84.94
55538;BME280;41383;51.418;7.286;2023-05-09T04:20:31;99882.88;;;15.82;84.85
55538;BME280;41383;51.418;7.286;2023-05-09T04:22:56;99881.50;;;15.84;85.29
55538;BME280;41383;51.418;7.286;2023-05-09T04:25:23;99882.50;;;15.88;85.29
55538;BME280;41383;51.418;7.286;2023-05-09T04:27:48;99875.06;;;15.89;84.73
55538;BME280;41383;51.418;7.286;2023-05-09T04:30:13;99879.47;;;15.90;85.19
55538;BME280;41383;51.418;7.286;2023-05-09T04:32:39;99871.75;;;15.92;85.04
55538;BME280;41383;51.418;7.286;2023-05-09T04:35:05;99869.22;;;15.96;85.29
55538;BME280;41383;51.418;7.286;2023-05-09T04:37:32;99870.03;;;15.96;85.04
55538;BME280;41383;51.418;7.286;2023-05-09T04:39:57;99865.34;;;15.97;85.02
55538;BME280;41383;51.418;7.286;2023-05-09T04:42:22;99863.09;;;15.99;84.75
55538;BME280;41383;51.418;7.286;2023-05-09T04:44:48;99860.31;;;16.04;84.65
55538;BME280;41383;51.418;7.286;2023-05-09T04:47:13;99858.97;;;16.02;84.64
55538;BME280;41383;51.418;7.286;2023-05-09T04:49:39;99861.63;;;16.07;84.75
55538;BME280;41383;51.418;7.286;2023-05-09T04:52:04;99849.63;;;16.03;84.67
55538;BME280;41383;51.418;7.286;2023-05-09T04:54:30;99852.91;;;16.05;84.59
55538;BME280;41383;51.418;7.286;2023-05-09T04:56:55;99848.56;;;15.98;84.82
55538;BME280;41383;51.418;7.286;2023-05-09T04:59:21;99848.84;;;15.97;85.31
55538;BME280;41383;51.418;7.286;2023-05-09T05:01:46;99844.84;;;15.89;85.64
55538;BME280;41383;51.418;7.286;2023-05-09T05:04:11;99847.28;;;15.91;85.64
55538;BME280;41383;51.418;7.286;2023-05-09T05:06:36;99835.50;;;15.90;85.73
55538;BME280;41383;51.418;7.286;2023-05-09T05:09:02;99842.03;;;15.94;85.67
55538;BME280;41383;51.418;7.286;2023-05-09T05:11:27;99837.31;;;15.95;85.73
55538;BME280;41383;51.418;7.286;2023-05-09T05:13:52;99837.81;;;16.02;85.60
55538;BME280;41383;51.418;7.286;2023-05-09T05:16:18;99831.47;;;16.02;85.43
55538;BME280;41383;51.418;7.286;2023-05-09T05:18:43;99829.25;;;16.04;85.48
55538;BME280;41383;51.418;7.286;2023-05-09T05:21:08;99826.50;;;16.04;85.70
55538;BME280;41383;51.418;7.286;2023-05-09T05:23:34;99817.81;;;15.96;85.87
55538;BME280;41383;51.418;7.286;2023-05-09T05:25:59;99816.97;;;15.96;86.15
55538;BME280;41383;51.418;7.286;2023-05-09T05:28:24;99822.25;;;15.92;86.31
55538;BME280;41383;51.418;7.286;2023-05-09T05:30:49;99824.91;;;15.97;86.15
55538;BME280;41383;51.418;7.286;2023-05-09T05:33:15;99826.56;;;15.98;86.29
55538;BME280;41383;51.418;7.286;2023-05-09T05:35:40;99828.63;;;16.07;85.78
55538;BME280;41383;51.418;7.286;2023-05-09T05:38:05;99821.00;;;16.04;85.84
55538;BME280;41383;51.418;7.286;2023-05-09T05:40:30;99826.56;;;15.98;86.20
55538;BME280;41383;51.418;7.286;2023-05-09T05:42:56;99821.06;;;15.98;86.21
55538;BME280;41383;51.418;7.286;2023-05-09T05:45:21;99817.81;;;15.96;86.19
55538;BME280;41383;51.418;7.286;2023-05-09T05:47:46;99814.41;;;16.05;86.26
55538;BME280;41383;51.418;7.286;2023-05-09T05:50:12;99809.09;;;16.08;86.06
55538;BME280;41383;51.418;7.286;2023-05-09T05:52:38;99812.13;;;16.07;86.36
55538;BME280;41383;51.418;7.286;2023-05-09T05:55:06;99814.50;;;16.14;86.03
55538;BME280;41383;51.418;7.286;2023-05-09T05:57:32;99813.00;;;16.21;85.85
55538;BME280;41383;51.418;7.286;2023-05-09T05:59:59;99818.69;;;16.25;85.60
55538;BME280;41383;51.418;7.286;2023-05-09T06:02:24;99826.06;;;16.30;85.56
55538;BME280;41383;51.418;7.286;2023-05-09T06:04:50;99822.09;;;16.36;85.20
55538;BME280;41383;51.418;7.286;2023-05-09T06:07:15;99817.31;;;16.42;84.99
55538;BME280;41383;51.418;7.286;2023-05-09T06:09:40;99814.25;;;16.43;85.01
55538;BME280;41383;51.418;7.286;2023-05-09T06:12:06;99814.59;;;16.56;84.82
55538;BME280;41383;51.418;7.286;2023-05-09T06:14:31;99802.47;;;16.57;84.81
55538;BME280;41383;51.418;7.286;2023-05-09T06:16:59;99811.25;;;16.59;84.93
55538;BME280;41383;51.418;7.286;2023-05-09T06:19:25;99797.56;;;16.54;85.05
55538;BME280;41383;51.418;7.286;2023-05-09T06:21:50;99793.91;;;16.59;85.16
55538;BME280;41383;51.418;7.286;2023-05-09T06:24:16;99797.78;;;16.57;85.30
55538;BME280;41383;51.418;7.286;2023-05-09T06:26:41;99797.78;;;16.72;85.07
55538;BME280;41383;51.418;7.286;2023-05-09T06:29:06;99790.03;;;16.74;84.65
55538;BME280;41383;51.418;7.286;2023-05-09T06:31:32;99787.50;;;16.77;84.70
55538;BME280;41383;51.418;7.286;2023-05-09T06:34:02;99788.19;;;16.83;84.40
55538;BME280;41383;51.418;7.286;2023-05-09T06:36:27;99781.28;;;16.86;83.97
55538;BME280;41383;51.418;7.286;2023-05-09T06:38:52;99767.78;;;16.84;84.32
55538;BME280;41383;51.418;7.286;2023-05-09T06:41:17;99767.78;;;16.84;84.32
55538;BME280;41383;51.418;7.286;2023-05-09T06:43:43;99762.50;;;16.88;84.44
55538;BME280;41383;51.418;7.286;2023-05-09T06:46:08;99770.13;;;16.91;84.38
55538;BME280;41383;51.418;7.286;2023-05-09T06:48:33;99769.03;;;16.92;84.50
55538;BME280;41383;51.418;7.286;2023-05-09T06:50:58;99768.00;;;16.88;85.13
55538;BME280;41383;51.418;7.286;2023-05-09T06:53:24;99758.81;;;16.92;84.82
55538;BME280;41383;51.418;7.286;2023-05-09T06:55:49;99750.16;;;16.99;84.54
55538;BME280;41383;51.418;7.286;2023-05-09T06:58:14;99742.72;;;17.00;84.52
55538;BME280;41383;51.418;7.286;2023-05-09T07:00:40;99747.69;;;16.98;84.64
55538;BME280;41383;51.418;7.286;2023-05-09T07:03:05;99755.56;;;16.90;84.99
55538;BME280;41383;51.418;7.286;2023-05-09T07:05:33;99741.69;;;16.96;85.12
55538;BME280;41383;51.418;7.286;2023-05-09T07:07:58;99747.19;;;16.96;84.83
55538;BME280;41383;51.418;7.286;2023-05-09T07:10:23;99741.38;;;16.97;84.76
55538;BME280;41383;51.418;7.286;2023-05-09T07:12:49;99737.81;;;16.97;84.73
55538;BME280;41383;51.418;7.286;2023-05-09T07:15:15;99728.13;;;16.99;84.85
55538;BME280;41383;51.418;7.286;2023-05-09T07:17:40;99723.19;;;17.10;84.54
55538;BME280;41383;51.418;7.286;2023-05-09T07:20:06;99711.69;;;17.08;84.71
55538;BME280;41383;51.418;7.286;2023-05-09T07:22:31;99714.84;;;17.15;84.58
55538;BME280;41383;51.418;7.286;2023-05-09T07:24:56;99712.69;;;17.26;84.41
55538;BME280;41383;51.418;7.286;2023-05-09T07:27:22;99714.09;;;17.24;84.34
55538;BME280;41383;51.418;7.286;2023-05-09T07:29:47;99712.88;;;17.30;84.43
55538;BME280;41383;51.418;7.286;2023-05-09T07:32:15;99707.47;;;17.25;84.30
55538;BME280;41383;51.418;7.286;2023-05-09T07:34:41;99712.88;;;17.30;84.19
55538;BME280;41383;51.418;7.286;2023-05-09T07:37:06;99701.06;;;17.15;84.10
55538;BME280;41383;51.418;7.286;2023-05-09T07:39:31;99701.91;;;17.02;84.43
55538;BME280;41383;51.418;7.286;2023-05-09T07:41:56;99704.72;;;17.11;84.42
55538;BME280;41383;51.418;7.286;2023-05-09T07:44:22;99706.25;;;17.17;84.30
55538;BME280;41383;51.418;7.286;2023-05-09T07:46:47;99700.66;;;17.22;84.28
55538;BME280;41383;51.418;7.286;2023-05-09T07:49:13;99698.78;;;17.32;84.13
55538;BME280;41383;51.418;7.286;2023-05-09T07:51:38;99689.13;;;17.43;83.62
55538;BME280;41383;51.418;7.286;2023-05-09T07:54:03;99688.94;;;17.39;83.40
55538;BME280;41383;51.418;7.286;2023-05-09T07:56:28;99684.06;;;17.36;82.82
55538;BME280;41383;51.418;7.286;2023-05-09T07:58:54;99680.75;;;17.48;82.79
55538;BME280;41383;51.418;7.286;2023-05-09T09:10:48;99612.31;;;17.73;77.38
55538;BME280;41383;51.418;7.286;2023-05-09T09:13:14;99602.94;;;17.83;76.79
55538;BME280;41383;51.418;7.286;2023-05-09T09:15:42;99598.75;;;17.95;76.15
55538;BME280;41383;51.418;7.286;2023-05-09T09:18:11;99589.44;;;18.23;75.15
55538;BME280;41383;51.418;7.286;2023-05-09T09:20:54;99590.47;;;18.53;74.11
55538;BME280;41383;51.418;7.286;2023-05-09T09:23:23;99585.16;;;18.75;73.68
55538;BME280;41383;51.418;7.286;2023-05-09T09:25:56;99578.63;;;18.88;71.45
55538;BME280;41383;51.418;7.286;2023-05-09T09:28:21;99574.56;;;18.95;70.94
55538;BME280;41383;51.418;7.286;2023-05-09T09:30:47;99573.94;;;18.89;70.81
55538;BME280;41383;51.418;7.286;2023-05-09T09:33:20;99569.38;;;18.75;71.03
55538;BME280;41383;51.418;7.286;2023-05-09T09:35:49;99564.81;;;18.79;70.43
55538;BME280;41383;51.418;7.286;2023-05-09T09:38:17;99567.41;;;18.94;70.37
55538;BME280;41383;51.418;7.286;2023-05-09T10:13:00;99522.63;;;19.45;65.14
55538;BME280;41383;51.418;7.286;2023-05-09T10:15:27;99516.88;;;19.59;63.42
55538;BME280;41383;51.418;7.286;2023-05-09T10:17:55;99512.66;;;19.92;63.72
55538;BME280;41383;51.418;7.286;2023-05-09T10:20:21;99513.19;;;20.15;62.32
55538;BME280;41383;51.418;7.286;2023-05-09T10:22:48;99507.53;;;20.33;60.35
55538;BME280;41383;51.418;7.286;2023-05-09T10:25:21;99513.38;;;20.53;58.92
55538;BME280;41383;51.418;7.286;2023-05-09T10:27:53;99505.56;;;20.55;58.38
55538;BME280;41383;51.418;7.286;2023-05-09T10:30:27;99507.69;;;20.71;58.94
55538;BME280;41383;51.418;7.286;2023-05-09T10:33:08;99497.88;;;20.95;58.91
55538;BME280;41383;51.418;7.286;2023-05-09T10:35:46;99497.41;;;20.93;59.42
55538;BME280;41383;51.418;7.286;2023-05-09T10:38:11;99495.34;;;21.02;58.79
55538;BME280;41383;51.418;7.286;2023-05-09T10:40:39;99485.72;;;21.21;59.13
55538;BME280;41383;51.418;7.286;2023-05-09T10:43:05;99482.69;;;21.26;58.64
55538;BME280;41383;51.418;7.286;2023-05-09T10:45:32;99474.38;;;21.26;58.96
55538;BME280;41383;51.418;7.286;2023-05-09T10:47:58;99468.63;;;21.31;58.76
55538;BME280;41383;51.418;7.286;2023-05-09T10:50:24;99473.69;;;21.54;58.07
55538;BME280;41383;51.418;7.286;2023-05-09T10:55:59;99473.34;;;21.31;56.81
55538;BME280;41383;51.418;7.286;2023-05-09T10:58:28;99471.59;;;21.26;56.97
55538;BME280;41383;51.418;7.286;2023-05-09T11:00:56;99459.03;;;21.29;57.17
55538;BME280;41383;51.418;7.286;2023-05-09T11:03:22;99457.31;;;21.37;57.75
55538;BME280;41383;51.418;7.286;2023-05-09T11:05:51;99454.63;;;21.40;57.54
55538;BME280;41383;51.418;7.286;2023-05-09T11:08:28;99449.91;;;21.28;57.23
55538;BME280;41383;51.418;7.286;2023-05-09T11:10:55;99441.47;;;21.25;57.79
55538;BME280;41383;51.418;7.286;2023-05-09T11:13:23;99442.97;;;21.34;58.13
55538;BME280;41383;51.418;7.286;2023-05-09T11:18:23;99438.81;;;21.66;58.10
55538;BME280;41383;51.418;7.286;2023-05-09T11:20:48;99438.09;;;21.81;56.55
55538;BME280;41383;51.418;7.286;2023-05-09T11:23:24;99435.34;;;21.56;54.94
55538;BME280;41383;51.418;7.286;2023-05-09T11:25:50;99430.97;;;21.43;54.97
55538;BME280;41383;51.418;7.286;2023-05-09T11:28:35;99432.25;;;21.33;54.80
55538;BME280;41383;51.418;7.286;2023-05-09T11:31:15;99429.94;;;21.22;54.84
55538;BME280;41383;51.418;7.286;2023-05-09T11:33:42;99430.38;;;21.25;54.33
55538;BME280;41383;51.418;7.286;2023-05-09T11:36:28;99422.53;;;21.14;54.34
55538;BME280;41383;51.418;7.286;2023-05-09T11:39:07;99423.91;;;21.08;54.96
55538;BME280;41383;51.418;7.286;2023-05-09T11:41:39;99412.94;;;21.24;54.41
55538;BME280;41383;51.418;7.286;2023-05-09T11:44:13;99412.38;;;21.31;55.12
55538;BME280;41383;51.418;7.286;2023-05-09T11:46:38;99413.75;;;21.25;54.90
55538;BME280;41383;51.418;7.286;2023-05-09T11:49:05;99409.94;;;21.17;55.47
55538;BME280;41383;51.418;7.286;2023-05-09T11:51:34;99389.50;;;21.34;54.42
55538;BME280;41383;51.418;7.286;2023-05-09T11:54:00;99395.13;;;21.50;54.75
55538;BME280;41383;51.418;7.286;2023-05-09T11:56:25;99386.03;;;21.50;53.75
55538;BME280;41383;51.418;7.286;2023-05-09T11:58:51;99382.00;;;21.22;54.50
55538;BME280;41383;51.418;7.286;2023-05-09T12:01:17;99380.13;;;21.14;55.50
55538;BME280;41383;51.418;7.286;2023-05-09T12:03:43;99380.16;;;21.01;55.42
55538;BME280;41383;51.418;7.286;2023-05-09T12:06:13;99384.28;;;20.95;55.34
55538;BME280;41383;51.418;7.286;2023-05-09T12:08:39;99374.09;;;20.86;55.64
55538;BME280;41383;51.418;7.286;2023-05-09T12:11:08;99370.84;;;20.72;56.00
55538;BME280;41383;51.418;7.286;2023-05-09T12:13:33;99374.53;;;20.63;56.72
55538;BME280;41383;51.418;7.286;2023-05-09T12:16:00;99371.06;;;20.54;57.50
55538;BME280;41383;51.418;7.286;2023-05-09T12:18:26;99361.03;;;20.62;57.09
55538;BME280;41383;51.418;7.286;2023-05-09T12:20:51;99362.31;;;20.77;57.10
55538;BME280;41383;51.418;7.286;2023-05-09T12:23:17;99358.66;;;20.98;56.64
55538;BME280;41383;51.418;7.286;2023-05-09T12:25:47;99351.50;;;21.09;56.05
55538;BME280;41383;51.418;7.286;2023-05-09T12:28:12;99338.56;;;21.26;55.99
55538;BME280;41383;51.418;7.286;2023-05-09T12:30:38;99335.56;;;21.31;55.27
55538;BME280;41383;51.418;7.286;2023-05-09T12:33:04;99342.81;;;21.36;55.79
55538;BME280;41383;51.418;7.286;2023-05-09T12:35:30;99331.28;;;21.21;55.91
55538;BME280;41383;51.418;7.286;2023-05-09T12:37:59;99328.16;;;20.85;55.40
55538;BME280;41383;51.418;7.286;2023-05-09T12:40:24;99330.47;;;20.83;55.91
55538;BME280;41383;51.418;7.286;2023-05-09T12:42:50;99328.75;;;21.04;55.48
55538;BME280;41383;51.418;7.286;2023-05-09T12:45:18;99315.94;;;21.11;55.73
55538;BME280;41383;51.418;7.286;2023-05-09T12:47:43;99326.47;;;21.06;56.31
55538;BME280;41383;51.418;7.286;2023-05-09T12:50:10;99318.72;;;21.11;56.32
55538;BME280;41383;51.418;7.286;2023-05-09T12:52:40;99316.66;;;21.21;56.83
55538;BME280;41383;51.418;7.286;2023-05-09T12:55:08;99303.81;;;21.29;56.54
55538;BME280;41383;51.418;7.286;2023-05-09T12:57:33;99309.56;;;21.36;56.23
55538;BME280;41383;51.418;7.286;2023-05-09T13:00:00;99302.03;;;21.49;56.49
55538;BME280;41383;51.418;7.286;2023-05-09T13:02:26;99299.84;;;21.42;56.08
55538;BME280;41383;51.418;7.286;2023-05-09T13:07:42;99289.78;;;21.50;55.37
55538;BME280;41383;51.418;7.286;2023-05-09T13:10:12;99283.31;;;21.46;56.17
55538;BME280;41383;51.418;7.286;2023-05-09T13:12:38;99288.41;;;21.44;57.10
55538;BME280;41383;51.418;7.286;2023-05-09T13:15:05;99274.91;;;21.42;57.16
55538;BME280;41383;51.418;7.286;2023-05-09T13:17:30;99273.28;;;21.41;57.38
55538;BME280;41383;51.418;7.286;2023-05-09T13:19:56;99276.44;;;21.40;57.31
55538;BME280;41383;51.418;7.286;2023-05-09T13:22:21;99267.41;;;21.43;56.90
55538;BME280;41383;51.418;7.286;2023-05-09T13:24:46;99260.69;;;21.44;57.22
55538;BME280;41383;51.418;7.286;2023-05-09T13:27:12;99273.88;;;21.34;57.45
55538;BME280;41383;51.418;7.286;2023-05-09T13:29:37;99266.84;;;21.37;56.97
55538;BME280;41383;51.418;7.286;2023-05-09T13:32:02;99260.56;;;21.40;56.71
55538;BME280;41383;51.418;7.286;2023-05-09T13:34:28;99254.25;;;21.40;57.48
55538;BME280;41383;51.418;7.286;2023-05-09T13:36:53;99254.47;;;21.34;58.24
55538;BME280;41383;51.418;7.286;2023-05-09T13:39:18;99252.81;;;21.17;57.07
55538;BME280;41383;51.418;7.286;2023-05-09T13:41:44;99247.34;;;21.21;59.49
55538;BME280;41383;51.418;7.286;2023-05-09T13:44:09;99243.41;;;21.22;59.27
55538;BME280;41383;51.418;7.286;2023-05-09T13:46:34;99242.41;;;21.14;57.76
55538;BME280;41383;51.418;7.286;2023-05-09T13:49:01;99235.13;;;21.09;58.29
55538;BME280;41383;51.418;7.286;2023-05-09T13:51:26;99235.38;;;21.04;57.20
55538;BME280;41383;51.418;7.286;2023-05-09T13:53:53;99230.09;;;20.99;57.99
55538;BME280;41383;51.418;7.286;2023-05-09T13:56:18;99232.94;;;20.90;57.60
55538;BME280;41383;51.418;7.286;2023-05-09T13:58:43;99223.59;;;20.95;58.10
55538;BME280;41383;51.418;7.286;2023-05-09T14:01:08;99216.22;;;20.86;57.38
55538;BME280;41383;51.418;7.286;2023-05-09T14:03:34;99223.38;;;20.87;59.09
55538;BME280;41383;51.418;7.286;2023-05-09T14:05:59;99219.22;;;20.81;57.63
55538;BME280;41383;51.418;7.286;2023-05-09T14:08:24;99213.94;;;20.63;57.93
55538;BME280;41383;51.418;7.286;2023-05-09T14:10:49;99208.84;;;20.53;57.99
55538;BME280;41383;51.418;7.286;2023-05-09T14:13:15;99201.34;;;20.41;58.06
55538;BME280;41383;51.418;7.286;2023-05-09T14:15:40;99215.66;;;20.43;59.55
55538;BME280;41383;51.418;7.286;2023-05-09T14:18:05;99207.44;;;20.34;59.15
55538;BME280;41383;51.418;7.286;2023-05-09T14:20:31;99203.28;;;20.28;60.27
55538;BME280;41383;51.418;7.286;2023-05-09T14:22:56;99210.69;;;20.24;61.98
55538;BME280;41383;51.418;7.286;2023-05-09T14:25:24;99208.31;;;20.01;63.49
55538;BME280;41383;51.418;7.286;2023-05-09T14:27:49;99212.31;;;19.91;65.67
55538;BME280;41383;51.418;7.286;2023-05-09T14:30:15;99210.09;;;19.84;66.95
55538;BME280;41383;51.418;7.286;2023-05-09T14:32:40;99211.09;;;19.67;69.00
55538;BME280;41383;51.418;7.286;2023-05-09T14:35:06;99206.06;;;19.47;70.41
55538;BME280;41383;51.418;7.286;2023-05-09T14:37:31;99202.84;;;19.45;71.72
55538;BME280;41383;51.418;7.286;2023-05-09T14:39:57;99197.19;;;19.42;72.35
55538;BME280;41383;51.418;7.286;2023-05-09T14:42:29;99201.03;;;19.28;73.76
55538;BME280;41383;51.418;7.286;2023-05-09T14:44:54;99193.66;;;19.11;74.54
55538;BME280;41383;51.418;7.286;2023-05-09T14:47:19;99195.47;;;19.07;75.01
55538;BME280;41383;51.418;7.286;2023-05-09T14:49:45;99201.94;;;19.11;75.62
55538;BME280;41383;51.418;7.286;2023-05-09T14:52:11;99219.22;;;19.08;76.09